Time,TemperatureF,DewpointF,PressureIn,WindDirection,WindDirectionDegrees,WindSpeedMPH,WindSpeedGustMPH,Humidity,HourlyPrecipIn,Conditions,Clouds,dailyrainin,SoftwareType,DateUTC
2013-01-21 00:03:00,20.1,8.1,30.44,North,354,0.0,0.0,59,0.00,CLR,,0.00,WeatherDisplay:10.37,2013-01-21 06:03:00,
2013-01-21 00:08:00,20.1,8.1,30.44,NE,34,0.0,0.0,59,0.00,CLR,,0.00,WeatherDisplay:10.37,2013-01-21 06:08:00,
2013-01-21 00:13:00,20.1,8.1,30.44,West,275,4.6,4.6,59,0.00,CLR,,0.00,WeatherDisplay:10.37,2013-01-21 06:13:00,
2013-01-21 00:18:00,20.1,8.1,30.42,North,1,3.5,0.0,59,0.00,CLR,,0.00,WeatherDisplay:10.37,2013-01-21 06:18:00,
2013-01-21 00:23:00,20.1,8.1,30.42,NNE,21,3.5,3.5,59,0.00,CLR,,0.00,WeatherDisplay:10.37,2013-01-21 06:23:00,
2013-01-21 00:28:00,20.1,8.1,30.42,North,6,3.5,0.0,59,0.00,CLR,,0.00,WeatherDisplay:10.37,2013-01-21 06:28:00,
2013-01-21 00:33:00,20.1,8.1,30.42,North,9,2.3,0.0,59,0.00,CLR,,0.00,WeatherDisplay:10.37,2013-01-21 06:33:00,
2013-01-21 00:38:00,19.9,7.9,30.42,North,5,3.5,3.5,59,0.00,CLR,,0.00,WeatherDisplay:10.37,2013-01-21 06:38:00,
2013-01-21 00:43:00,19.9,7.9,30.42,NNE,16,0.0,0.0,59,0.00,CLR,,0.00,WeatherDisplay:10.37,2013-01-21 06:43:00,
2013-01-21 00:48:00,19.9,7.9,30.42,NNE,29,3.1,0.0,59,0.00,CLR,,0.00,WeatherDisplay:10.37,2013-01-21 06:48:00,
2013-01-21 00:53:00,19.9,7.9,30.42,NE,41,4.0,4.0,59,0.00,CLR,,0.00,WeatherDisplay:10.37,2013-01-21 06:53:00,
2013-01-21 00:58:00,19.9,7.9,30.42,ENE,58,2.3,0.0,59,0.00,CLR,,0.00,WeatherDisplay:10.37,2013-01-21 06:58:00,
2013-01-21 01:03:00,19.4,7.4,30.42,North,10,3.5,0.0,59,0.00,CLR,,0.00,WeatherDisplay:10.37,2013-01-21 07:03:00,
2013-01-21 01:08:00,19.2,7.2,30.42,North,11,0.0,0.0,59,0.00,CLR,,0.00,WeatherDisplay:10.37,2013-01-21 07:08:00,
2013-01-21 01:13:00,19.0,7.0,30.42,North,11,0.0,0.0,59,0.00,CLR,,0.00,WeatherDisplay:10.37,2013-01-21 07:13:00,
2013-01-21 01:18:00,18.9,6.9,30.42,North,11,0.0,0.0,59,0.00,CLR,,0.00,WeatherDisplay:10.37,2013-01-21 07:18:00,
2013-01-21 01:23:00,18.7,6.3,30.42,North,11,0.0,0.0,58,0.00,CLR,,0.00,WeatherDisplay:10.37,2013-01-21 07:23:00,
2013-01-21 01:28:00,18.5,6.2,30.42,North,11,0.0,0.0,58,0.00,CLR,,0.00,WeatherDisplay:10.37,2013-01-21 07:28:00,
2013-01-21 01:33:00,18.1,5.8,30.42,North,11,0.0,0.0,58,0.00,CLR,,0.00,WeatherDisplay:10.37,2013-01-21 07:33:00,
2013-01-21 01:38:00,17.8,5.5,30.42,North,11,0.0,0.0,58,0.00,CLR,,0.00,WeatherDisplay:10.37,2013-01-21 07:38:00,
2013-01-21 01:43:00,17.6,5.3,30.42,North,11,0.0,0.0,58,0.00,CLR,,0.00,WeatherDisplay:10.37,2013-01-21 07:43:00,
2013-01-21 01:48:00,17.6,5.3,30.44,North,11,0.0,0.0,58,0.00,CLR,,0.00,WeatherDisplay:10.37,2013-01-21 07:48:00,
2013-01-21 01:53:00,17.4,5.1,30.44,North,11,0.0,0.0,58,0.00,CLR,,0.00,WeatherDisplay:10.37,2013-01-21 07:53:00,
2013-01-21 01:58:00,17.1,4.8,30.44,North,11,0.0,0.0,58,0.00,CLR,,0.00,WeatherDisplay:10.37,2013-01-21 07:58:00,
2013-01-21 02:03:00,17.1,4.8,30.44,North,11,0.0,0.0,58,0.00,CLR,,0.00,WeatherDisplay:10.37,2013-01-21 08:03:00,
2013-01-21 02:08:00,16.9,4.6,30.44,North,11,0.0,0.0,58,0.00,CLR,,0.00,WeatherDisplay:10.37,2013-01-21 08:08:00,
2013-01-21 02:13:00,16.9,4.6,30.44,North,11,0.0,0.0,58,0.00,CLR,,0.00,WeatherDisplay:10.37,2013-01-21 08:13:00,
2013-01-21 02:18:00,16.7,4.5,30.44,North,11,0.0,0.0,58,0.00,CLR,,0.00,WeatherDisplay:10.37,2013-01-21 08:18:00,
2013-01-21 02:23:00,16.7,4.5,30.44,North,11,0.0,0.0,58,0.00,CLR,,0.00,WeatherDisplay:10.37,2013-01-21 08:23:00,
2013-01-21 02:28:00,16.5,4.3,30.44,North,11,0.0,0.0,58,0.00,CLR,,0.00,WeatherDisplay:10.37,2013-01-21 08:28:00,
2013-01-21 02:34:00,16.5,4.3,30.44,North,11,0.0,0.0,58,0.00,CLR,,0.00,WeatherDisplay:10.37,2013-01-21 08:34:00,
2013-01-21 02:39:00,16.3,4.1,30.44,North,11,0.0,0.0,58,0.00,CLR,,0.00,WeatherDisplay:10.37,2013-01-21 08:39:00,
2013-01-21 02:44:00,16.2,4.0,30.44,North,11,0.0,0.0,58,0.00,CLR,,0.00,WeatherDisplay:10.37,2013-01-21 08:44:00,
2013-01-21 02:49:00,16.0,3.8,30.44,North,11,0.0,0.0,58,0.00,CLR,,0.00,WeatherDisplay:10.37,2013-01-21 08:49:00,
2013-01-21 02:54:00,16.0,3.8,30.44,North,11,0.0,0.0,58,0.00,CLR,,0.00,WeatherDisplay:10.37,2013-01-21 08:54:00,
2013-01-21 02:59:00,15.8,3.6,30.44,North,11,0.0,0.0,58,0.00,CLR,,0.00,WeatherDisplay:10.37,2013-01-21 08:59:00,
2013-01-21 03:04:00,15.4,3.3,30.44,North,11,0.0,0.0,58,0.00,CLR,,0.00,WeatherDisplay:10.37,2013-01-21 09:04:00,
2013-01-21 03:09:00,15.4,3.3,30.44,North,11,0.0,0.0,58,0.00,CLR,,0.00,WeatherDisplay:10.37,2013-01-21 09:09:00,
2013-01-21 03:14:00,15.3,5.3,30.44,North,11,0.0,0.0,64,0.00,CLR,,0.00,WeatherDisplay:10.37,2013-01-21 09:14:00,
2013-01-21 03:19:00,15.1,5.1,30.44,North,11,0.0,0.0,64,0.00,CLR,,0.00,WeatherDisplay:10.37,2013-01-21 09:19:00,
2013-01-21 03:24:00,15.1,5.1,30.44,North,11,0.0,0.0,64,0.00,CLR,,0.00,WeatherDisplay:10.37,2013-01-21 09:24:00,
2013-01-21 03:29:00,14.9,4.9,30.44,North,11,0.0,0.0,64,0.00,CLR,,0.00,WeatherDisplay:10.37,2013-01-21 09:29:00,
2013-01-21 03:34:00,14.7,4.7,30.44,North,11,0.0,0.0,64,0.00,CLR,,0.00,WeatherDisplay:10.37,2013-01-21 09:34:00,
2013-01-21 03:39:00,14.7,4.7,30.44,North,11,0.0,0.0,64,0.00,CLR,,0.00,WeatherDisplay:10.37,2013-01-21 09:39:00,
2013-01-21 03:44:00,14.5,4.6,30.44,North,11,0.0,0.0,64,0.00,CLR,,0.00,WeatherDisplay:10.37,2013-01-21 09:44:00,
2013-01-21 03:49:00,14.5,4.6,30.42,North,11,0.0,0.0,64,0.00,CLR,,0.00,WeatherDisplay:10.37,2013-01-21 09:49:00,
2013-01-21 03:54:00,14.4,4.4,30.42,North,11,0.0,0.0,64,0.00,CLR,,0.00,WeatherDisplay:10.37,2013-01-21 09:54:00,
2013-01-21 03:59:00,14.2,4.2,30.42,North,11,0.0,0.0,64,0.00,CLR,,0.00,WeatherDisplay:10.37,2013-01-21 09:59:00,
2013-01-21 04:04:00,14.2,4.2,30.42,North,11,0.0,0.0,64,0.00,CLR,,0.00,WeatherDisplay:10.37,2013-01-21 10:04:00,
2013-01-21 04:09:00,14.0,4.1,30.42,North,11,0.0,0.0,64,0.00,CLR,,0.00,WeatherDisplay:10.37,2013-01-21 10:09:00,
2013-01-21 04:14:00,13.8,4.9,30.42,North,11,0.0,0.0,67,0.00,CLR,,0.00,WeatherDisplay:10.37,2013-01-21 10:14:00,
2013-01-21 04:19:00,13.8,4.9,30.42,North,11,0.0,0.0,67,0.00,CLR,,0.00,WeatherDisplay:10.37,2013-01-21 10:19:00,
2013-01-21 04:24:00,13.6,4.7,30.42,North,11,0.0,0.0,67,0.00,CLR,,0.00,WeatherDisplay:10.37,2013-01-21 10:24:00,
2013-01-21 04:29:00,13.6,4.7,30.42,North,11,0.0,0.0,67,0.00,CLR,,0.00,WeatherDisplay:10.37,2013-01-21 10:29:00,
2013-01-21 04:34:00,13.6,4.7,30.42,North,11,0.0,0.0,67,0.00,CLR,,0.00,WeatherDisplay:10.37,2013-01-21 10:34:00,
2013-01-21 04:39:00,13.6,4.7,30.42,North,11,0.0,0.0,67,0.00,CLR,,0.00,WeatherDisplay:10.37,2013-01-21 10:39:00,
2013-01-21 04:44:00,13.6,4.7,30.42,North,11,0.0,0.0,67,0.00,CLR,,0.00,WeatherDisplay:10.37,2013-01-21 10:44:00,
2013-01-21 04:49:00,13.6,4.7,30.42,North,11,0.0,0.0,67,0.00,CLR,,0.00,WeatherDisplay:10.37,2013-01-21 10:49:00,
2013-01-21 04:54:00,13.6,4.7,30.42,North,11,0.0,0.0,67,0.00,CLR,,0.00,WeatherDisplay:10.37,2013-01-21 10:54:00,
2013-01-21 04:59:00,13.8,4.9,30.42,North,11,0.0,0.0,67,0.00,CLR,,0.00,WeatherDisplay:10.37,2013-01-21 10:59:00,
2013-01-21 05:04:00,14.2,7.1,30.42,North,11,0.0,0.0,73,0.00,BKN,,0.00,WeatherDisplay:10.37,2013-01-21 11:04:00,
2013-01-21 05:09:00,14.4,7.3,30.42,North,11,0.0,0.0,73,0.00,BKN,,0.00,WeatherDisplay:10.37,2013-01-21 11:09:00,
2013-01-21 05:14:00,14.5,7.5,30.42,North,11,0.0,0.0,73,0.00,BKN,,0.00,WeatherDisplay:10.37,2013-01-21 11:14:00,
2013-01-21 05:19:00,14.7,7.6,30.39,North,11,0.0,0.0,73,0.00,BKN,,0.00,WeatherDisplay:10.37,2013-01-21 11:19:00,
2013-01-21 05:24:00,15.1,8.0,30.39,North,11,0.0,0.0,73,0.00,BKN,,0.00,WeatherDisplay:10.37,2013-01-21 11:24:00,
2013-01-21 05:29:00,15.3,8.2,30.39,North,11,0.0,0.0,73,0.00,BKN,,0.00,WeatherDisplay:10.37,2013-01-21 11:29:00,
2013-01-21 05:34:00,15.4,8.3,30.39,North,11,0.0,0.0,73,0.00,BKN,,0.00,WeatherDisplay:10.37,2013-01-21 11:34:00,
2013-01-21 05:39:00,15.8,8.7,30.39,North,10,0.0,0.0,73,0.00,BKN,,0.00,WeatherDisplay:10.37,2013-01-21 11:39:00,
2013-01-21 05:44:00,16.0,8.8,30.39,North,7,0.0,0.0,73,0.00,BKN,,0.00,WeatherDisplay:10.37,2013-01-21 11:44:00,
2013-01-21 05:49:00,16.0,8.8,30.42,North,7,0.0,0.0,73,0.00,BKN,,0.00,WeatherDisplay:10.37,2013-01-21 11:49:00,
2013-01-21 05:54:00,16.0,8.8,30.42,North,7,0.0,0.0,73,0.00,BKN,,0.00,WeatherDisplay:10.37,2013-01-21 11:54:00,
2013-01-21 05:59:00,15.8,8.7,30.42,North,7,0.0,0.0,73,0.00,BKN,,0.00,WeatherDisplay:10.37,2013-01-21 11:59:00,
2013-01-21 06:04:00,15.8,8.7,30.42,North,7,0.0,0.0,73,0.00,BKN,,0.00,WeatherDisplay:10.37,2013-01-21 12:04:00,
2013-01-21 06:09:00,15.6,8.5,30.42,North,7,0.0,0.0,73,0.00,BKN,,0.00,WeatherDisplay:10.37,2013-01-21 12:09:00,
2013-01-21 06:14:00,15.4,6.4,30.42,North,7,0.0,0.0,67,0.00,OVC,,0.00,WeatherDisplay:10.37,2013-01-21 12:14:00,
2013-01-21 06:19:00,15.4,6.4,30.42,North,7,0.0,0.0,67,0.00,OVC,,0.00,WeatherDisplay:10.37,2013-01-21 12:19:00,
2013-01-21 06:24:00,15.4,6.4,30.42,North,7,0.0,0.0,67,0.00,OVC,,0.00,WeatherDisplay:10.37,2013-01-21 12:24:00,
2013-01-21 06:29:00,15.6,6.6,30.42,North,7,0.0,0.0,67,0.00,OVC,,0.00,WeatherDisplay:10.37,2013-01-21 12:29:00,
2013-01-21 06:34:00,15.6,6.6,30.42,North,7,0.0,0.0,67,0.00,OVC,,0.00,WeatherDisplay:10.37,2013-01-21 12:34:00,
2013-01-21 06:39:00,15.8,6.8,30.42,North,8,0.0,0.0,67,0.00,OVC,,0.00,WeatherDisplay:10.37,2013-01-21 12:39:00,
2013-01-21 06:44:00,16.0,6.9,30.42,North,7,0.0,0.0,67,0.00,OVC,,0.00,WeatherDisplay:10.37,2013-01-21 12:44:00,
2013-01-21 06:49:00,16.0,6.9,30.42,North,7,0.0,0.0,67,0.00,OVC,,0.00,WeatherDisplay:10.37,2013-01-21 12:49:00,
2013-01-21 06:54:00,16.2,7.1,30.42,North,7,0.0,0.0,67,0.00,OVC,,0.00,WeatherDisplay:10.37,2013-01-21 12:54:00,
2013-01-21 06:59:00,16.5,7.5,30.42,North,7,0.0,0.0,67,0.00,OVC,,0.00,WeatherDisplay:10.37,2013-01-21 12:59:00,
2013-01-21 07:04:00,16.5,7.5,30.42,North,7,0.0,0.0,67,0.00,OVC,,0.00,WeatherDisplay:10.37,2013-01-21 13:04:00,
2013-01-21 07:09:00,16.7,7.6,30.42,North,5,0.0,0.0,67,0.00,OVC,,0.00,WeatherDisplay:10.37,2013-01-21 13:09:00,
2013-01-21 07:14:00,17.1,9.9,30.42,North,5,0.0,0.0,73,0.00,OVC,,0.00,WeatherDisplay:10.37,2013-01-21 13:14:00,
2013-01-21 07:19:00,17.1,9.9,30.42,North,5,0.0,0.0,73,0.00,OVC,,0.00,WeatherDisplay:10.37,2013-01-21 13:19:00,
2013-01-21 07:24:00,17.4,10.2,30.42,North,5,0.0,0.0,73,0.00,OVC,,0.00,WeatherDisplay:10.37,2013-01-21 13:24:00,
2013-01-21 07:29:00,17.4,10.2,30.42,North,5,0.0,0.0,73,0.00,OVC,,0.00,WeatherDisplay:10.37,2013-01-21 13:29:00,
2013-01-21 07:34:00,17.4,10.2,30.42,North,5,0.0,0.0,73,0.00,OVC,,0.00,WeatherDisplay:10.37,2013-01-21 13:34:00,
2013-01-21 07:39:00,17.2,10.1,30.42,North,5,0.0,0.0,73,0.00,OVC,,0.00,WeatherDisplay:10.37,2013-01-21 13:39:00,
2013-01-21 07:44:00,17.2,10.1,30.42,North,5,0.0,0.0,73,0.00,OVC,,0.00,WeatherDisplay:10.37,2013-01-21 13:44:00,
2013-01-21 07:49:00,17.2,10.1,30.42,NW,312,0.0,2.2,73,0.00,OVC,,0.00,WeatherDisplay:10.37,2013-01-21 13:49:00,
2013-01-21 07:54:00,17.4,10.2,30.42,NW,312,0.0,0.0,73,0.00,OVC,,0.00,WeatherDisplay:10.37,2013-01-21 13:54:00,
2013-01-21 07:59:00,17.6,10.4,30.42,North,8,2.3,0.0,73,0.00,OVC,,0.00,WeatherDisplay:10.37,2013-01-21 13:59:00,
2013-01-21 08:04:00,18.0,10.8,30.42,North,4,3.5,0.0,73,0.00,OVC,,0.00,WeatherDisplay:10.37,2013-01-21 14:04:00,
2013-01-21 08:09:00,18.1,10.9,30.42,NNE,21,3.5,0.0,73,0.00,OVC,,0.00,WeatherDisplay:10.37,2013-01-21 14:09:00,
2013-01-21 08:14:00,18.5,10.3,30.42,North,1,3.5,3.5,70,0.00,OVC,,0.00,WeatherDisplay:10.37,2013-01-21 14:14:00,
2013-01-21 08:19:00,18.7,10.5,30.44,NNE,28,3.1,3.1,70,0.00,OVC,,0.00,WeatherDisplay:10.37,2013-01-21 14:19:00,
2013-01-21 08:24:00,18.9,10.7,30.44,NE,42,5.8,5.8,70,0.00,OVC,,0.00,WeatherDisplay:10.37,2013-01-21 14:24:00,
2013-01-21 08:29:00,19.0,10.9,30.44,ENE,64,5.8,6.3,70,0.00,OVC,,0.00,WeatherDisplay:10.37,2013-01-21 14:29:00,
2013-01-21 08:34:00,19.0,10.9,30.44,NNE,19,4.6,4.6,70,0.00,OVC,,0.00,WeatherDisplay:10.37,2013-01-21 14:34:00,
2013-01-21 08:39:00,19.0,10.9,30.44,NE,43,6.3,6.3,70,0.00,OVC,,0.00,WeatherDisplay:10.37,2013-01-21 14:39:00,
2013-01-21 08:44:00,19.0,10.9,30.44,NNE,27,3.5,3.5,70,0.00,OVC,,0.00,WeatherDisplay:10.37,2013-01-21 14:44:00,
2013-01-21 08:49:00,19.0,10.9,30.44,NE,42,5.8,5.8,70,0.00,OVC,,0.00,WeatherDisplay:10.37,2013-01-21 14:49:00,
2013-01-21 08:54:00,19.0,10.9,30.44,North,4,4.6,4.6,70,0.00,OVC,,0.00,WeatherDisplay:10.37,2013-01-21 14:54:00,
2013-01-21 08:59:00,19.0,10.9,30.44,NNW,338,4.6,4.6,70,0.00,OVC,,0.00,WeatherDisplay:10.37,2013-01-21 14:59:00,
2013-01-21 09:04:00,19.0,10.9,30.44,North,357,3.5,3.5,70,0.00,OVC,,0.00,WeatherDisplay:10.37,2013-01-21 15:04:00,
2013-01-21 09:09:00,19.2,11.0,30.44,NE,41,3.5,3.5,70,0.00,OVC,,0.00,WeatherDisplay:10.37,2013-01-21 15:09:00,
2013-01-21 09:14:00,19.6,11.4,30.44,NE,45,5.8,5.8,70,0.00,OVC,,0.00,WeatherDisplay:10.37,2013-01-21 15:14:00,
2013-01-21 09:19:00,19.8,11.6,30.44,ENE,62,3.5,3.5,70,0.00,OVC,,0.00,WeatherDisplay:10.37,2013-01-21 15:19:00,
2013-01-21 09:24:00,19.9,11.7,30.44,NE,56,3.6,3.6,70,0.00,OVC,,0.00,WeatherDisplay:10.37,2013-01-21 15:24:00,
2013-01-21 09:29:00,19.9,11.7,30.44,NNE,20,3.6,3.6,70,0.00,OVC,,0.00,WeatherDisplay:10.37,2013-01-21 15:29:00,
2013-01-21 09:34:00,20.1,11.9,30.44,NE,54,5.8,5.8,70,0.00,OVC,,0.00,WeatherDisplay:10.37,2013-01-21 15:34:00,
2013-01-21 09:39:00,20.3,12.1,30.44,ENE,66,5.8,5.8,70,0.00,OVC,,0.00,WeatherDisplay:10.37,2013-01-21 15:39:00,
2013-01-21 09:44:00,20.3,12.1,30.44,ENE,65,2.3,3.1,70,0.00,OVC,,0.00,WeatherDisplay:10.37,2013-01-21 15:44:00,
2013-01-21 09:49:00,20.5,12.2,30.44,ENE,73,5.8,5.8,70,0.00,OVC,,0.00,WeatherDisplay:10.37,2013-01-21 15:49:00,
2013-01-21 09:54:00,20.7,12.4,30.44,ENE,57,5.8,5.8,70,0.00,OVC,,0.00,WeatherDisplay:10.37,2013-01-21 15:54:00,
2013-01-21 09:59:00,20.7,12.4,30.44,North,8,8.1,8.1,70,0.00,OVC,,0.00,WeatherDisplay:10.37,2013-01-21 15:59:00,
2013-01-21 10:04:00,20.7,12.4,30.44,ENE,57,5.8,5.8,70,0.00,OVC,,0.00,WeatherDisplay:10.37,2013-01-21 16:04:00,
2013-01-21 10:09:00,20.7,12.4,30.44,NNE,14,5.8,5.8,70,0.00,OVC,,0.00,WeatherDisplay:10.37,2013-01-21 16:09:00,
2013-01-21 10:14:00,20.7,10.4,30.44,NNE,33,5.8,5.8,64,0.00,OVC,,0.00,WeatherDisplay:10.37,2013-01-21 16:14:00,
2013-01-21 10:19:00,20.7,10.4,30.48,NE,42,5.8,5.8,64,0.00,OVC,,0.00,WeatherDisplay:10.37,2013-01-21 16:19:00,
2013-01-21 10:24:00,20.7,10.4,30.48,North,6,5.8,5.8,64,0.00,OVC,,0.00,WeatherDisplay:10.37,2013-01-21 16:24:00,
2013-01-21 10:29:00,20.8,10.6,30.48,NNE,17,5.8,5.8,64,0.00,OVC,,0.00,WeatherDisplay:10.37,2013-01-21 16:29:00,
2013-01-21 10:34:00,21.0,10.7,30.44,North,1,4.6,4.6,64,0.00,OVC,,0.00,WeatherDisplay:10.37,2013-01-21 16:34:00,
2013-01-21 10:39:00,21.2,10.9,30.44,NNE,12,3.5,3.5,64,0.00,OVC,,0.00,WeatherDisplay:10.37,2013-01-21 16:39:00,
2013-01-21 10:44:00,21.2,10.9,30.44,NNE,23,8.1,8.1,64,0.00,OVC,,0.00,WeatherDisplay:10.37,2013-01-21 16:44:00,
2013-01-21 10:49:00,21.2,10.9,30.44,NE,37,5.8,5.8,64,0.00,OVC,,0.00,WeatherDisplay:10.37,2013-01-21 16:49:00,
2013-01-21 10:54:00,21.2,10.9,30.44,NNW,340,4.6,4.6,64,0.00,OVC,,0.00,WeatherDisplay:10.37,2013-01-21 16:54:00,
2013-01-21 10:59:00,21.4,11.1,30.44,ENE,73,4.6,4.6,64,0.00,OVC,,0.00,WeatherDisplay:10.37,2013-01-21 16:59:00,
2013-01-21 11:04:00,21.7,11.4,30.48,NNE,13,3.1,0.0,64,0.00,OVC,,0.00,WeatherDisplay:10.37,2013-01-21 17:04:00,
2013-01-21 11:09:00,22.1,11.8,30.48,ENE,62,3.5,3.5,64,0.00,OVC,,0.00,WeatherDisplay:10.37,2013-01-21 17:09:00,
2013-01-21 11:14:00,22.5,10.3,30.48,NNE,22,3.5,4.0,59,0.00,OVC,,0.00,WeatherDisplay:10.37,2013-01-21 17:14:00,
2013-01-21 11:19:00,22.6,10.4,30.48,ENE,63,5.8,5.8,59,0.00,OVC,,0.00,WeatherDisplay:10.37,2013-01-21 17:19:00,
2013-01-21 11:24:00,22.6,10.4,30.48,North,354,5.8,5.8,59,0.00,OVC,,0.00,WeatherDisplay:10.37,2013-01-21 17:24:00,
2013-01-21 11:29:00,22.6,10.4,30.48,North,1,5.8,6.7,59,0.00,OVC,,0.00,WeatherDisplay:10.37,2013-01-21 17:29:00,
2013-01-21 11:34:00,22.6,10.4,30.44,NNE,26,7.6,7.6,59,0.00,OVC,,0.00,WeatherDisplay:10.37,2013-01-21 17:34:00,
2013-01-21 11:39:00,22.8,10.6,30.44,North,1,8.1,8.1,59,0.00,OVC,,0.00,WeatherDisplay:10.37,2013-01-21 17:39:00,
2013-01-21 11:44:00,22.8,10.6,30.44,NNW,347,3.6,4.0,59,0.00,OVC,,0.00,WeatherDisplay:10.37,2013-01-21 17:44:00,
2013-01-21 11:49:00,22.8,10.6,30.44,NW,322,8.1,8.1,59,0.00,OVC,,0.00,WeatherDisplay:10.37,2013-01-21 17:49:00,
2013-01-21 11:54:00,23.0,10.8,30.44,North,1,5.8,5.8,59,0.00,OVC,,0.00,WeatherDisplay:10.37,2013-01-21 17:54:00,
2013-01-21 11:59:00,23.2,11.0,30.44,NNE,18,3.5,3.5,59,0.00,OVC,,0.00,WeatherDisplay:10.37,2013-01-21 17:59:00,
2013-01-21 12:04:00,23.4,11.1,30.44,NNW,341,5.8,5.8,59,0.00,OVC,,0.00,WeatherDisplay:10.37,2013-01-21 18:04:00,
2013-01-21 12:09:00,23.5,11.3,30.44,NNW,338,5.8,5.8,59,0.00,OVC,,0.00,WeatherDisplay:10.37,2013-01-21 18:09:00,
2013-01-21 12:14:00,23.5,8.5,30.44,NNW,329,5.8,5.8,52,0.00,OVC,,0.00,WeatherDisplay:10.37,2013-01-21 18:14:00,
2013-01-21 12:20:00,23.5,8.5,30.44,North,1,8.1,8.1,52,0.00,OVC,,0.00,WeatherDisplay:10.37,2013-01-21 18:20:00,
2013-01-21 12:25:00,23.5,8.5,30.44,NE,38,4.6,4.6,52,0.00,OVC,,0.00,WeatherDisplay:10.37,2013-01-21 18:25:00,
2013-01-21 12:30:00,23.9,8.8,30.44,NW,316,4.6,4.6,52,0.00,OVC,,0.00,WeatherDisplay:10.37,2013-01-21 18:30:00,
2013-01-21 12:35:00,23.9,8.8,30.44,NE,44,5.8,5.8,52,0.00,OVC,,0.00,WeatherDisplay:10.37,2013-01-21 18:35:00,
2013-01-21 12:40:00,23.7,8.6,30.44,NE,49,3.5,3.5,52,0.00,OVC,,0.00,WeatherDisplay:10.37,2013-01-21 18:40:00,
2013-01-21 12:45:00,23.9,8.8,30.44,WNW,291,4.0,4.0,52,0.00,OVC,,0.00,WeatherDisplay:10.37,2013-01-21 18:45:00,
2013-01-21 12:50:00,24.1,9.0,30.44,NE,38,3.1,0.0,52,0.00,OVC,,0.00,WeatherDisplay:10.37,2013-01-21 18:50:00,
2013-01-21 12:55:00,24.3,9.1,30.44,NE,40,3.5,3.5,52,0.00,OVC,,0.00,WeatherDisplay:10.37,2013-01-21 18:55:00,
2013-01-21 13:00:00,24.3,9.1,30.44,NNE,22,5.8,5.8,52,0.00,OVC,,0.00,WeatherDisplay:10.37,2013-01-21 19:00:00,
2013-01-21 13:05:00,23.9,8.8,30.42,North,11,3.6,3.6,52,0.00,OVC,,0.00,WeatherDisplay:10.37,2013-01-21 19:05:00,
2013-01-21 13:10:00,24.1,9.0,30.42,ENE,75,2.3,0.0,52,0.00,OVC,,0.00,WeatherDisplay:10.37,2013-01-21 19:10:00,
2013-01-21 13:15:00,24.4,6.1,30.42,NNE,18,3.5,3.5,45,0.00,OVC,,0.00,WeatherDisplay:10.37,2013-01-21 19:15:00,
2013-01-21 13:20:00,24.4,6.1,30.44,North,1,3.5,3.5,45,0.00,OVC,,0.00,WeatherDisplay:10.37,2013-01-21 19:20:00,
2013-01-21 13:25:00,24.3,5.9,30.44,North,1,5.8,5.8,45,0.00,OVC,,0.00,WeatherDisplay:10.37,2013-01-21 19:25:00,
2013-01-21 13:30:00,24.3,5.9,30.44,NW,310,3.5,3.5,45,0.00,OVC,,0.00,WeatherDisplay:10.37,2013-01-21 19:30:00,
2013-01-21 13:35:00,24.3,5.9,30.42,WNW,298,2.3,0.0,45,0.00,OVC,,0.00,WeatherDisplay:10.37,2013-01-21 19:35:00,
2013-01-21 13:40:00,24.4,6.1,30.42,NNW,346,5.8,5.8,45,0.00,OVC,,0.00,WeatherDisplay:10.37,2013-01-21 19:40:00,
2013-01-21 13:45:00,24.4,6.1,30.42,ENE,59,5.8,5.8,45,0.00,OVC,,0.00,WeatherDisplay:10.37,2013-01-21 19:45:00,
2013-01-21 13:50:00,24.1,5.8,30.42,ENE,57,4.6,4.6,45,0.00,OVC,,0.00,WeatherDisplay:10.37,2013-01-21 19:50:00,
2013-01-21 13:55:00,24.1,5.8,30.42,ENE,58,5.8,5.8,45,0.00,OVC,,0.00,WeatherDisplay:10.37,2013-01-21 19:55:00,
2013-01-21 14:00:00,23.9,5.6,30.42,NNE,32,5.8,5.8,45,0.00,OVC,,0.00,WeatherDisplay:10.37,2013-01-21 20:00:00,
2013-01-21 14:05:00,23.5,5.3,30.42,NNE,32,3.5,3.6,45,0.00,OVC,,0.00,WeatherDisplay:10.37,2013-01-21 20:05:00,
2013-01-21 14:10:00,23.5,5.3,30.42,NNE,20,5.8,5.8,45,0.00,OVC,,0.00,WeatherDisplay:10.37,2013-01-21 20:10:00,
2013-01-21 14:15:00,23.5,5.3,30.42,NE,41,5.8,0.0,45,0.00,OVC,,0.00,WeatherDisplay:10.37,2013-01-21 20:15:00,
2013-01-21 14:20:00,23.7,5.4,30.42,NNW,346,4.6,4.6,45,0.00,OVC,,0.00,WeatherDisplay:10.37,2013-01-21 20:20:00,
2013-01-21 14:25:00,23.7,5.4,30.42,ENE,57,5.8,5.8,45,0.00,OVC,,0.00,WeatherDisplay:10.37,2013-01-21 20:25:00,
2013-01-21 14:30:00,23.5,5.3,30.42,NE,35,5.8,5.8,45,0.00,OVC,,0.00,WeatherDisplay:10.37,2013-01-21 20:30:00,
2013-01-21 14:35:00,23.4,5.1,30.42,ENE,67,3.5,4.0,45,0.00,OVC,,0.00,WeatherDisplay:10.37,2013-01-21 20:35:00,
2013-01-21 14:40:00,23.5,5.3,30.42,NNW,332,3.5,3.5,45,0.00,OVC,,0.00,WeatherDisplay:10.37,2013-01-21 20:40:00,
2013-01-21 14:45:00,23.9,5.6,30.42,ENE,75,2.3,2.7,45,0.00,OVC,,0.00,WeatherDisplay:10.37,2013-01-21 20:45:00,
2013-01-21 14:50:00,24.1,5.8,30.42,NE,39,4.0,4.0,45,0.00,OVC,,0.00,WeatherDisplay:10.37,2013-01-21 20:50:00,
2013-01-21 14:55:00,24.1,5.8,30.42,NW,323,4.6,4.6,45,0.00,OVC,,0.00,WeatherDisplay:10.37,2013-01-21 20:55:00,
2013-01-21 15:00:00,24.1,5.8,30.42,North,1,5.8,5.8,45,0.00,OVC,,0.00,WeatherDisplay:10.37,2013-01-21 21:00:00,
2013-01-21 15:05:00,23.7,5.4,30.42,NNE,18,4.6,4.6,45,0.00,OVC,,0.00,WeatherDisplay:10.37,2013-01-21 21:05:00,
2013-01-21 15:10:00,23.5,5.3,30.42,North,5,5.8,0.0,45,0.00,OVC,,0.00,WeatherDisplay:10.37,2013-01-21 21:10:00,
2013-01-21 15:15:00,23.4,5.1,30.42,NE,44,8.1,8.1,45,0.00,OVC,,0.00,WeatherDisplay:10.37,2013-01-21 21:15:00,
2013-01-21 15:20:00,23.4,5.1,30.42,North,10,3.5,3.5,45,0.00,OVC,,0.00,WeatherDisplay:10.37,2013-01-21 21:20:00,
2013-01-21 15:25:00,23.5,5.3,30.42,NNE,13,2.3,0.0,45,0.00,OVC,,0.00,WeatherDisplay:10.37,2013-01-21 21:25:00,
2013-01-21 15:30:00,23.5,5.3,30.42,ENE,68,3.5,3.5,45,0.00,OVC,,0.00,WeatherDisplay:10.37,2013-01-21 21:30:00,
2013-01-21 15:35:00,23.5,5.3,30.39,NNE,26,3.5,3.5,45,0.00,OVC,,0.00,WeatherDisplay:10.37,2013-01-21 21:35:00,
2013-01-21 15:40:00,23.7,5.4,30.39,NNE,33,3.5,3.5,45,0.00,OVC,,0.00,WeatherDisplay:10.37,2013-01-21 21:40:00,
2013-01-21 15:45:00,23.5,5.3,30.39,East,81,5.8,5.8,45,0.00,OVC,,0.00,WeatherDisplay:10.37,2013-01-21 21:45:00,
2013-01-21 15:50:00,23.7,5.4,30.39,ENE,71,2.7,0.0,45,0.00,OVC,,0.00,WeatherDisplay:10.37,2013-01-21 21:50:00,
2013-01-21 15:55:00,23.9,5.6,30.39,NNE,18,4.6,4.6,45,0.00,OVC,,0.00,WeatherDisplay:10.37,2013-01-21 21:55:00,
2013-01-21 16:00:00,23.5,5.3,30.39,NE,52,3.5,3.5,45,0.00,OVC,,0.00,WeatherDisplay:10.37,2013-01-21 22:00:00,
2013-01-21 16:05:00,23.5,4.3,30.39,ESE,103,3.5,3.5,43,0.00,OVC,,0.00,WeatherDisplay:10.37,2013-01-21 22:05:00,
2013-01-21 16:10:00,23.5,4.3,30.39,NE,56,3.5,3.5,43,0.00,OVC,,0.00,WeatherDisplay:10.37,2013-01-21 22:10:00,
2013-01-21 16:15:00,23.4,4.1,30.39,NE,49,3.5,3.5,43,0.00,OVC,,0.00,WeatherDisplay:10.37,2013-01-21 22:15:00,
2013-01-21 16:20:00,23.2,4.0,30.39,NE,52,3.5,3.5,43,0.00,OVC,,0.00,WeatherDisplay:10.37,2013-01-21 22:20:00,
2013-01-21 16:25:00,22.8,3.6,30.39,North,1,4.6,4.6,43,0.00,OVC,,0.00,WeatherDisplay:10.37,2013-01-21 22:25:00,
2013-01-21 16:30:00,22.6,3.5,30.39,ENE,69,3.5,3.5,43,0.00,OVC,,0.00,WeatherDisplay:10.37,2013-01-21 22:30:00,
2013-01-21 16:35:00,22.5,3.3,30.39,NE,35,5.8,5.8,43,0.00,OVC,,0.00,WeatherDisplay:10.37,2013-01-21 22:35:00,
2013-01-21 16:40:00,22.3,3.1,30.39,NE,50,5.8,5.8,43,0.00,OVC,,0.00,WeatherDisplay:10.37,2013-01-21 22:40:00,
2013-01-21 16:45:00,22.1,3.0,30.39,NNE,31,5.8,5.8,43,0.00,OVC,,0.00,WeatherDisplay:10.37,2013-01-21 22:45:00,
2013-01-21 16:50:00,22.1,3.0,30.39,North,1,5.8,5.8,43,0.00,OVC,,0.00,WeatherDisplay:10.37,2013-01-21 22:50:00,
2013-01-21 16:55:00,21.9,2.8,30.39,NE,48,5.8,5.8,43,0.00,OVC,,0.00,WeatherDisplay:10.37,2013-01-21 22:55:00,
2013-01-21 17:00:00,21.9,2.8,30.39,East,84,3.5,3.5,43,0.00,OVC,,0.00,WeatherDisplay:10.37,2013-01-21 23:00:00,
2013-01-21 17:05:00,21.7,2.6,30.39,NNE,21,4.5,4.5,43,0.00,OVC,,0.00,WeatherDisplay:10.37,2013-01-21 23:05:00,
2013-01-21 17:10:00,21.6,2.5,30.39,ENE,63,4.6,4.6,43,0.00,OVC,,0.00,WeatherDisplay:10.37,2013-01-21 23:10:00,
2013-01-21 17:15:00,21.6,5.3,30.39,ENE,57,3.5,3.5,49,0.00,OVC,,0.00,WeatherDisplay:10.37,2013-01-21 23:15:00,
2013-01-21 17:20:00,21.2,5.0,30.39,North,11,4.6,4.6,49,0.00,OVC,,0.00,WeatherDisplay:10.37,2013-01-21 23:20:00,
2013-01-21 17:25:00,20.8,4.7,30.39,NE,56,5.8,5.8,49,0.00,OVC,,0.00,WeatherDisplay:10.37,2013-01-21 23:25:00,
2013-01-21 17:30:00,20.5,4.3,30.39,ESE,121,4.6,4.6,49,0.00,OVC,,0.00,WeatherDisplay:10.37,2013-01-21 23:30:00,
2013-01-21 17:35:00,20.1,4.0,30.39,NNE,32,3.5,3.5,49,0.00,OVC,,0.00,WeatherDisplay:10.37,2013-01-21 23:35:00,
2013-01-21 17:40:00,19.9,3.8,30.39,NE,47,3.5,3.5,49,0.00,OVC,,0.00,WeatherDisplay:10.37,2013-01-21 23:40:00,
2013-01-21 17:45:00,19.6,3.5,30.39,NE,52,3.5,3.5,49,0.00,OVC,,0.00,WeatherDisplay:10.37,2013-01-21 23:45:00,
2013-01-21 17:50:00,19.4,3.3,30.39,ENE,65,2.7,2.7,49,0.00,OVC,,0.00,WeatherDisplay:10.37,2013-01-21 23:50:00,
2013-01-21 17:55:00,19.0,3.0,30.39,North,349,3.6,3.6,49,0.00,OVC,,0.00,WeatherDisplay:10.37,2013-01-21 23:55:00,
2013-01-21 18:00:00,18.9,2.8,30.39,East,79,3.5,3.5,49,0.00,OVC,,0.00,WeatherDisplay:10.37,2013-01-22 00:00:00,
2013-01-21 18:05:00,18.7,2.7,30.39,NE,52,3.5,3.5,49,0.00,OVC,,0.00,WeatherDisplay:10.37,2013-01-22 00:05:00,
2013-01-21 18:10:00,18.5,2.5,30.39,NE,45,5.8,5.8,49,0.00,OVC,,0.00,WeatherDisplay:10.37,2013-01-22 00:10:00,
2013-01-21 18:15:00,18.3,2.3,30.39,North,1,3.5,4.0,49,0.00,OVC,,0.00,WeatherDisplay:10.37,2013-01-22 00:15:00,
2013-01-21 18:20:00,18.3,2.3,30.39,NE,34,4.0,4.0,49,0.00,OVC,,0.00,WeatherDisplay:10.37,2013-01-22 00:20:00,
2013-01-21 18:25:00,18.1,5.1,30.39,NE,40,3.5,3.6,56,0.00,BKN,,0.00,WeatherDisplay:10.37,2013-01-22 00:25:00,
2013-01-21 18:30:00,17.8,4.7,30.39,NE,45,3.5,3.5,56,0.00,BKN,,0.00,WeatherDisplay:10.37,2013-01-22 00:30:00,
2013-01-21 18:35:00,17.6,4.5,30.39,NE,43,3.5,3.5,56,0.00,BKN,,0.00,WeatherDisplay:10.37,2013-01-22 00:35:00,
2013-01-21 18:40:00,17.6,4.5,30.39,NE,46,3.5,0.0,56,0.00,BKN,,0.00,WeatherDisplay:10.37,2013-01-22 00:40:00,
2013-01-21 18:45:00,17.4,4.4,30.39,NE,45,3.5,3.5,56,0.00,BKN,,0.00,WeatherDisplay:10.37,2013-01-22 00:45:00,
2013-01-21 18:50:00,17.4,4.4,30.39,ENE,60,3.5,0.0,56,0.00,BKN,,0.00,WeatherDisplay:10.37,2013-01-22 00:50:00,
2013-01-21 18:55:00,17.1,4.0,30.39,North,1,5.8,5.8,56,0.00,BKN,,0.00,WeatherDisplay:10.37,2013-01-22 00:55:00,
2013-01-21 19:00:00,16.9,3.9,30.39,SE,134,3.5,3.5,56,0.00,BKN,,0.00,WeatherDisplay:10.37,2013-01-22 01:00:00,
2013-01-21 19:05:00,16.7,4.5,30.39,North,10,3.5,0.0,58,0.00,FEW,,0.00,WeatherDisplay:10.37,2013-01-22 01:05:00,
2013-01-21 19:10:00,16.7,4.5,30.39,NE,41,3.5,3.5,58,0.00,FEW,,0.00,WeatherDisplay:10.37,2013-01-22 01:10:00,
2013-01-21 19:15:00,16.5,4.3,30.39,SE,135,2.3,0.0,58,0.00,FEW,,0.00,WeatherDisplay:10.37,2013-01-22 01:15:00,
2013-01-21 19:20:00,16.5,4.3,30.39,NE,40,3.5,3.5,58,0.00,FEW,,0.00,WeatherDisplay:10.37,2013-01-22 01:20:00,
2013-01-21 19:25:00,16.5,4.3,30.39,ENE,57,3.1,0.0,58,0.00,FEW,,0.00,WeatherDisplay:10.37,2013-01-22 01:25:00,
2013-01-21 19:30:00,16.3,4.1,30.39,NNE,29,3.5,3.5,58,0.00,FEW,,0.00,WeatherDisplay:10.37,2013-01-22 01:30:00,
2013-01-21 19:35:00,16.3,4.1,30.39,NE,38,5.8,5.8,58,0.00,FEW,,0.00,WeatherDisplay:10.37,2013-01-22 01:35:00,
2013-01-21 19:40:00,16.2,4.0,30.39,NE,49,3.5,3.5,58,0.00,FEW,,0.00,WeatherDisplay:10.37,2013-01-22 01:40:00,
2013-01-21 19:45:00,16.2,4.0,30.39,NE,39,3.0,6.0,58,0.00,FEW,,0.00,WeatherDisplay:10.37,2013-01-22 01:45:00,
2013-01-21 19:50:00,16.2,4.0,30.39,NE,44,3.5,3.5,58,0.00,FEW,,0.00,WeatherDisplay:10.37,2013-01-22 01:50:00,
2013-01-21 19:55:00,16.2,4.0,30.39,NE,52,3.5,3.5,58,0.00,FEW,,0.00,WeatherDisplay:10.37,2013-01-22 01:55:00,
2013-01-21 20:00:00,16.2,4.0,30.39,NE,34,3.5,3.5,58,0.00,FEW,,0.00,WeatherDisplay:10.37,2013-01-22 02:00:00,
2013-01-21 20:06:00,16.0,3.8,30.39,NE,50,3.6,3.6,58,0.00,FEW,,0.00,WeatherDisplay:10.37,2013-01-22 02:06:00,
2013-01-21 20:11:00,16.0,3.8,30.39,NNE,26,3.5,0.0,58,0.00,FEW,,0.00,WeatherDisplay:10.37,2013-01-22 02:11:00,
2013-01-21 20:15:00,16.0,4.9,30.39,NE,35,2.0,5.0,61,0.00,BKN,,0.00,WeatherDisplay:10.37,2013-01-22 02:15:00,
2013-01-21 20:20:00,15.8,4.7,30.39,ENE,60,2.3,0.0,61,0.00,BKN,,0.00,WeatherDisplay:10.37,2013-01-22 02:20:00,
2013-01-21 20:25:00,15.8,4.7,30.39,ENE,63,3.5,3.5,61,0.00,BKN,,0.00,WeatherDisplay:10.37,2013-01-22 02:25:00,
2013-01-21 20:30:00,15.8,4.7,30.39,NE,53,3.5,3.5,61,0.00,BKN,,0.00,WeatherDisplay:10.37,2013-01-22 02:30:00,
2013-01-21 20:35:00,15.8,4.7,30.39,NNE,20,2.7,2.7,61,0.00,BKN,,0.00,WeatherDisplay:10.37,2013-01-22 02:35:00,
2013-01-21 20:40:00,15.8,4.7,30.39,North,1,3.5,3.5,61,0.00,BKN,,0.00,WeatherDisplay:10.37,2013-01-22 02:40:00,
2013-01-21 20:45:00,15.8,4.7,30.39,NNE,19,2.0,4.0,61,0.00,BKN,,0.00,WeatherDisplay:10.37,2013-01-22 02:45:00,
2013-01-21 20:50:00,15.8,4.7,30.39,NE,45,2.3,0.0,61,0.00,BKN,,0.00,WeatherDisplay:10.37,2013-01-22 02:50:00,
2013-01-21 20:55:00,15.8,4.7,30.39,NE,35,2.3,0.0,61,0.00,BKN,,0.00,WeatherDisplay:10.37,2013-01-22 02:55:00,
2013-01-21 21:00:00,15.8,4.7,30.39,NNW,347,3.5,3.5,61,0.00,BKN,,0.00,WeatherDisplay:10.37,2013-01-22 03:00:00,
2013-01-21 21:05:00,15.8,5.4,30.39,NE,37,2.3,0.0,63,0.00,OVC,,0.00,WeatherDisplay:10.37,2013-01-22 03:05:00,
2013-01-21 21:10:00,15.8,5.4,30.39,NE,43,0.0,0.0,63,0.00,OVC,,0.00,WeatherDisplay:10.37,2013-01-22 03:10:00,
2013-01-21 21:16:00,15.6,5.2,30.39,NE,40,4.9,4.9,63,0.00,OVC,,0.00,WeatherDisplay:10.37,2013-01-22 03:16:00,
2013-01-21 21:21:00,15.6,5.2,30.39,NNE,14,3.5,3.5,63,0.00,OVC,,0.00,WeatherDisplay:10.37,2013-01-22 03:21:00,
2013-01-21 21:26:00,15.6,5.2,30.39,NNE,20,2.3,0.0,63,0.00,OVC,,0.00,WeatherDisplay:10.37,2013-01-22 03:26:00,
2013-01-21 21:31:00,15.8,5.4,30.39,NNE,14,2.0,3.0,63,0.00,OVC,,0.00,WeatherDisplay:10.37,2013-01-22 03:31:00,
2013-01-21 21:36:00,15.8,5.4,30.39,North,5,3.5,3.5,63,0.00,OVC,,0.00,WeatherDisplay:10.37,2013-01-22 03:36:00,
2013-01-21 21:41:00,16.0,5.6,30.39,NE,34,2.3,0.0,63,0.00,OVC,,0.00,WeatherDisplay:10.37,2013-01-22 03:41:00,
2013-01-21 21:46:00,16.0,5.6,30.39,NE,34,3.5,0.0,63,0.00,OVC,,0.00,WeatherDisplay:10.37,2013-01-22 03:46:00,
2013-01-21 21:51:00,16.2,5.8,30.42,NNE,31,2.3,2.7,63,0.00,OVC,,0.00,WeatherDisplay:10.37,2013-01-22 03:51:00,
2013-01-21 21:56:00,16.2,5.8,30.42,North,6,5.4,5.4,63,0.00,OVC,,0.00,WeatherDisplay:10.37,2013-01-22 03:56:00,
2013-01-21 22:01:00,16.2,5.8,30.42,NE,35,3.0,6.0,63,0.00,OVC,,0.00,WeatherDisplay:10.37,2013-01-22 04:01:00,
2013-01-21 22:06:00,16.2,5.8,30.42,North,1,3.1,3.1,63,0.00,OVC,,0.00,WeatherDisplay:10.37,2013-01-22 04:06:00,
2013-01-21 22:11:00,16.2,5.8,30.42,NE,54,4.6,4.6,63,0.00,OVC,,0.00,WeatherDisplay:10.37,2013-01-22 04:11:00,
2013-01-21 22:16:00,16.2,4.3,30.42,SE,132,3.5,3.5,59,0.00,OVC,,0.00,WeatherDisplay:10.37,2013-01-22 04:16:00,
2013-01-21 22:21:00,16.2,4.3,30.42,NNW,338,3.5,3.5,59,0.00,OVC,,0.00,WeatherDisplay:10.37,2013-01-22 04:21:00,
2013-01-21 22:26:00,16.3,4.5,30.42,NE,34,2.3,0.0,59,0.00,OVC,,0.00,WeatherDisplay:10.37,2013-01-22 04:26:00,
2013-01-21 22:31:00,16.5,4.7,30.42,NE,38,3.5,3.5,59,0.00,OVC,,0.00,WeatherDisplay:10.37,2013-01-22 04:31:00,
2013-01-21 22:36:00,16.5,4.7,30.42,NE,56,0.0,0.0,59,0.00,OVC,,0.00,WeatherDisplay:10.37,2013-01-22 04:36:00,
2013-01-21 22:41:00,16.7,4.8,30.42,NE,56,0.0,0.0,59,0.00,OVC,,0.00,WeatherDisplay:10.37,2013-01-22 04:41:00,
2013-01-21 22:46:00,16.7,4.8,30.42,NE,54,0.0,0.0,59,0.00,OVC,,0.00,WeatherDisplay:10.37,2013-01-22 04:46:00,
2013-01-21 22:51:00,16.7,4.8,30.39,North,357,3.5,3.5,59,0.00,OVC,,0.00,WeatherDisplay:10.37,2013-01-22 04:51:00,
2013-01-21 22:56:00,16.7,4.8,30.39,North,7,3.5,3.5,59,0.00,OVC,,0.00,WeatherDisplay:10.37,2013-01-22 04:56:00,
2013-01-21 23:00:00,16.7,4.8,30.39,NE,34,2.3,0.0,59,0.00,OVC,,0.00,WeatherDisplay:10.37,2013-01-22 05:00:00,
2013-01-21 23:01:00,16.7,4.8,30.39,NE,34,2.3,0.0,59,0.00,OVC,,0.00,WeatherDisplay:10.37,2013-01-22 05:01:00,
2013-01-21 23:06:00,16.9,5.0,30.39,NE,34,2.3,2.7,59,0.00,OVC,,0.00,WeatherDisplay:10.37,2013-01-22 05:06:00,
2013-01-21 23:11:00,16.9,5.0,30.39,North,1,2.3,0.0,59,0.00,OVC,,0.00,WeatherDisplay:10.37,2013-01-22 05:11:00,
2013-01-21 23:16:00,16.9,5.0,30.39,NE,41,2.3,0.0,59,0.00,OVC,,0.00,WeatherDisplay:10.37,2013-01-22 05:16:00,
2013-01-21 23:21:00,16.9,5.0,30.39,NNE,32,3.5,3.5,59,0.00,OVC,,0.00,WeatherDisplay:10.37,2013-01-22 05:21:00,
2013-01-21 23:26:00,16.9,5.0,30.39,NE,48,3.5,3.5,59,0.00,OVC,,0.00,WeatherDisplay:10.37,2013-01-22 05:26:00,
2013-01-21 23:31:00,16.9,5.0,30.39,NE,47,3.5,3.6,59,0.00,OVC,,0.00,WeatherDisplay:10.37,2013-01-22 05:31:00,
2013-01-21 23:36:00,16.9,5.0,30.39,NE,41,5.8,5.8,59,0.00,OVC,,0.00,WeatherDisplay:10.37,2013-01-22 05:36:00,
2013-01-21 23:41:00,16.9,5.0,30.39,NNE,23,0.0,0.0,59,0.00,OVC,,0.00,WeatherDisplay:10.37,2013-01-22 05:41:00,
2013-01-21 23:46:00,16.7,4.8,30.39,NNE,24,3.5,3.5,59,0.00,OVC,,0.00,WeatherDisplay:10.37,2013-01-22 05:46:00,
2013-01-21 23:51:00,16.7,4.8,30.39,NNE,24,3.5,3.5,59,0.00,OVC,,0.00,WeatherDisplay:10.37,2013-01-22 05:51:00,
2013-01-21 23:56:00,16.7,4.8,30.39,NE,35,4.6,4.6,59,0.00,OVC,,0.00,WeatherDisplay:10.37,2013-01-22 05:56:00,